Time;durP1;ratioP1;P1;durP2;ratioP2;P2;SDS_P1;SDS_P2;PMS_P1;PMS_P2;Temp;Humidity;BMP_temperature;BMP_pressure;BME280_temperature;BME280_humidity;BME280_pressure;Samples;Min_cycle;Max_cycle;Signal;HPM_P1;HPM_P2
2022/11/10 00:00:29;;;;;;;6.85;2.10;;;12.10;99.90;;;;;;4773353;30;20043;-70
2022/11/10 00:03:01;;;;;;;14.20;2.45;;;12.10;99.90;;;;;;4773063;30;20124;-70
2022/11/10 00:05:26;;;;;;;11.73;2.42;;;12.00;99.90;;;;;;4773089;30;20426;-70
2022/11/10 00:07:52;;;;;;;14.38;2.55;;;12.10;99.90;;;;;;4772864;30;20047;-71
2022/11/10 00:10:17;;;;;;;6.32;2.00;;;12.10;99.90;;;;;;4773254;30;20333;-71
2022/11/10 00:12:43;;;;;;;12.65;2.85;;;12.20;99.90;;;;;;4772870;30;20052;-71
2022/11/10 00:17:54;;;;;;;19.45;2.92;;;12.00;99.90;;;;;;4772960;30;20137;-72
2022/11/10 00:20:20;;;;;;;13.30;2.75;;;12.00;99.90;;;;;;4773220;30;20449;-71
2022/11/10 00:22:46;;;;;;;10.80;2.63;;;12.00;99.90;;;;;;4772762;30;20112;-70
2022/11/10 00:25:11;;;;;;;15.85;3.40;;;11.90;99.90;;;;;;4772856;30;20070;-70
2022/11/10 00:27:37;;;;;;;14.95;2.45;;;12.00;99.90;;;;;;4772142;30;20060;-70
2022/11/10 00:30:04;;;;;;;16.35;2.97;;;11.90;99.90;;;;;;4772030;30;20055;-70
2022/11/10 00:32:30;;;;;;;14.32;3.30;;;11.80;99.90;;;;;;4771794;30;20426;-70
2022/11/10 00:34:56;;;;;;;12.52;2.92;;;11.80;99.90;;;;;;4772811;30;20055;-70
2022/11/10 00:37:22;;;;;;;25.25;3.08;;;11.80;99.90;;;;;;4776345;30;20379;-70
2022/11/10 00:39:48;;;;;;;17.85;3.50;;;11.80;99.90;;;;;;4774538;30;20047;-70
2022/11/10 00:42:14;;;;;;;13.85;3.00;;;11.80;99.90;;;;;;4776163;30;20083;-70
2022/11/10 00:44:40;;;;;;;14.43;3.63;;;11.90;99.90;;;;;;4775937;30;20048;-70
2022/11/10 00:47:05;;;;;;;15.75;3.53;;;11.90;99.90;;;;;;4775781;30;20054;-71
2022/11/10 00:49:31;;;;;;;24.05;3.25;;;11.90;99.90;;;;;;4776012;30;20050;-70
2022/11/10 00:51:57;;;;;;;18.10;3.40;;;11.90;99.90;;;;;;4776040;30;20043;-70
2022/11/10 00:54:23;;;;;;;15.93;3.40;;;11.90;99.90;;;;;;4775684;30;20419;-70
2022/11/10 00:56:48;;;;;;;16.63;3.10;;;11.90;99.90;;;;;;4775979;30;20119;-70
2022/11/10 00:59:14;;;;;;;21.17;3.65;;;11.90;99.90;;;;;;4775756;30;20044;-71
2022/11/10 01:01:39;;;;;;;15.05;3.42;;;11.90;99.90;;;;;;4775600;30;20043;-71
2022/11/10 01:04:06;;;;;;;12.88;3.63;;;11.80;99.90;;;;;;4775727;30;20040;-71
2022/11/10 01:06:31;;;;;;;20.25;4.45;;;11.80;99.90;;;;;;4775740;30;20104;-70
2022/11/10 01:08:57;;;;;;;17.88;4.07;;;11.80;99.90;;;;;;4775336;30;20443;-70
2022/11/10 01:11:26;;;;;;;16.17;3.92;;;11.70;99.90;;;;;;4775484;30;20051;-71
2022/11/10 01:13:53;;;;;;;16.33;3.67;;;11.70;99.90;;;;;;4775309;30;20066;-71
2022/11/10 01:16:22;;;;;;;23.63;3.70;;;11.70;99.90;;;;;;4775410;30;20044;-71
2022/11/10 01:18:49;;;;;;;20.88;4.63;;;11.70;99.90;;;;;;4775515;30;20039;-71
2022/11/10 01:21:15;;;;;;;11.18;3.15;;;11.70;99.90;;;;;;4775465;30;20285;-70
2022/11/10 01:23:41;;;;;;;12.75;3.53;;;11.70;99.90;;;;;;4775547;30;20083;-71
2022/11/10 01:26:07;;;;;;;11.55;3.55;;;11.80;99.90;;;;;;4784889;30;20047;-71
2022/11/10 01:28:34;;;;;;;17.05;4.38;;;11.80;99.90;;;;;;4792001;30;20452;-71
2022/11/10 01:31:03;;;;;;;12.85;3.67;;;11.90;99.90;;;;;;4791969;30;20102;-71
2022/11/10 01:33:29;;;;;;;21.40;4.05;;;11.80;99.90;;;;;;4792985;29;20091;-71
2022/11/10 01:35:55;;;;;;;18.50;4.45;;;11.70;99.90;;;;;;4791975;30;20132;-71
2022/11/10 01:38:21;;;;;;;17.17;4.07;;;11.80;99.90;;;;;;4792725;30;20051;-70
2022/11/10 01:40:47;;;;;;;22.88;5.70;;;11.80;99.90;;;;;;4792963;29;20052;-70
2022/11/10 01:43:13;;;;;;;31.80;5.55;;;11.80;99.90;;;;;;4793016;29;20390;-70
2022/11/10 01:45:49;;;;;;;20.50;5.25;;;11.80;99.90;;;;;;4792593;29;20047;-71
2022/11/10 01:48:23;;;;;;;19.35;4.43;;;11.80;99.90;;;;;;4792259;30;20078;-71
2022/11/10 01:50:48;;;;;;;19.60;5.20;;;11.80;99.90;;;;;;4792683;29;20090;-71
2022/11/10 01:53:22;;;;;;;23.38;5.80;;;11.80;99.90;;;;;;4792892;29;20082;-71
2022/11/10 01:55:48;;;;;;;29.45;6.72;;;11.80;99.90;;;;;;4792738;30;20039;-71
2022/11/10 01:58:16;;;;;;;13.65;4.60;;;11.80;99.90;;;;;;4792459;29;20051;-71
2022/11/10 02:00:43;;;;;;;22.38;5.70;;;11.80;99.90;;;;;;4792081;30;20363;-71
2022/11/10 02:03:15;;;;;;;21.70;5.40;;;11.90;99.90;;;;;;4792665;30;20043;-71
2022/11/10 02:05:42;;;;;;;27.10;5.28;;;11.80;99.90;;;;;;4792647;30;20122;-70
2022/11/10 02:08:09;;;;;;;22.33;6.75;;;11.70;99.90;;;;;;4792137;30;20108;-71
2022/11/10 02:10:36;;;;;;;16.38;5.45;;;11.60;99.90;;;;;;4792783;30;20043;-71
2022/11/10 02:13:01;;;;;;;21.98;5.63;;;11.70;99.90;;;;;;4792312;30;20201;-71
2022/11/10 02:15:27;;;;;;;21.17;6.20;;;11.70;99.90;;;;;;4792253;29;20114;-72
2022/11/10 02:17:53;;;;;;;15.35;5.45;;;11.80;99.90;;;;;;4792518;30;20042;-71
2022/11/10 02:20:20;;;;;;;21.00;5.32;;;11.70;99.90;;;;;;4792414;30;20430;-71
2022/11/10 02:22:46;;;;;;;20.42;6.15;;;11.70;99.90;;;;;;4791500;30;20055;-70
2022/11/10 02:25:18;;;;;;;22.92;5.68;;;11.80;99.90;;;;;;4792223;29;20095;-71
2022/11/10 02:27:44;;;;;;;16.23;5.80;;;11.80;99.90;;;;;;4792377;29;20108;-71
2022/11/10 02:30:10;;;;;;;17.00;4.97;;;11.80;99.90;;;;;;4792036;29;20055;-70
2022/11/10 02:32:36;;;;;;;23.48;7.18;;;11.70;99.90;;;;;;4792236;29;20047;-70
2022/11/10 02:35:02;;;;;;;15.95;5.43;;;11.60;99.90;;;;;;4791925;30;20047;-71
2022/11/10 02:37:28;;;;;;;18.73;5.68;;;11.60;99.90;;;;;;4791998;30;20172;-71
2022/11/10 02:39:53;;;;;;;35.50;6.00;;;11.60;99.90;;;;;;4791424;30;20119;-71
2022/11/10 02:42:19;;;;;;;17.05;5.68;;;11.70;99.90;;;;;;4791987;30;20136;-71
2022/11/10 02:44:45;;;;;;;18.88;5.70;;;11.80;99.90;;;;;;4792154;29;20047;-70
2022/11/10 02:47:11;;;;;;;30.00;7.20;;;11.80;99.90;;;;;;4791696;30;20047;-71
2022/11/10 02:49:37;;;;;;;21.10;5.90;;;11.80;99.90;;;;;;4791850;29;20100;-71
2022/11/10 02:52:02;;;;;;;21.13;5.82;;;11.80;99.90;;;;;;4791633;29;20039;-70
2022/11/10 02:54:28;;;;;;;18.20;5.63;;;11.70;99.90;;;;;;4791681;29;20051;-71
2022/11/10 02:56:54;;;;;;;18.63;5.82;;;11.50;99.90;;;;;;4792042;29;20043;-70
2022/11/10 02:59:19;;;;;;;26.05;6.28;;;11.50;99.90;;;;;;4791358;29;20039;-71
2022/11/10 03:01:45;;;;;;;23.17;6.78;;;11.50;99.90;;;;;;4791712;29;20051;-70
2022/11/10 03:04:10;;;;;;;26.67;6.60;;;11.60;99.90;;;;;;4791745;29;20101;-71
2022/11/10 03:06:36;;;;;;;19.73;5.70;;;11.60;99.90;;;;;;4791558;30;20070;-70
2022/11/10 03:09:02;;;;;;;17.60;6.05;;;11.50;99.90;;;;;;4790892;30;20039;-71
2022/11/10 03:11:28;;;;;;;28.15;7.15;;;11.60;99.90;;;;;;4791645;29;20086;-71
2022/11/10 03:13:53;;;;;;;25.70;6.30;;;11.70;99.90;;;;;;4791303;29;20090;-70
2022/11/10 03:16:19;;;;;;;13.30;5.18;;;11.70;99.90;;;;;;4791542;29;20052;-72
2022/11/10 03:18:45;;;;;;;28.85;6.40;;;11.70;99.90;;;;;;4791367;30;20497;-71
2022/11/10 03:21:10;;;;;;;18.17;5.15;;;11.60;99.90;;;;;;4790537;30;20051;-71
2022/11/10 03:23:36;;;;;;;19.80;7.13;;;11.60;99.90;;;;;;4790791;30;20430;-71
2022/11/10 03:26:05;;;;;;;23.02;6.43;;;11.50;99.90;;;;;;4791475;29;20407;-70
2022/11/10 03:28:32;;;;;;;19.63;5.25;;;11.70;99.90;;;;;;4791470;29;20051;-73
2022/11/10 03:30:57;;;;;;;31.63;6.97;;;11.70;99.90;;;;;;4790924;29;20054;-70
2022/11/10 03:33:23;;;;;;;19.27;4.88;;;11.70;99.90;;;;;;4791298;29;20326;-71
2022/11/10 03:35:48;;;;;;;22.60;5.95;;;11.70;99.90;;;;;;4790951;30;20460;-70
2022/11/10 03:38:14;;;;;;;18.40;5.55;;;11.60;99.90;;;;;;4790656;29;20047;-71
2022/11/10 03:40:40;;;;;;;17.15;5.13;;;11.70;99.90;;;;;;4790920;30;20126;-70
2022/11/10 03:43:05;;;;;;;22.95;5.90;;;11.70;99.90;;;;;;4790075;30;20051;-72
2022/11/10 03:45:31;;;;;;;22.50;5.95;;;11.80;99.90;;;;;;4790693;29;20055;-71
2022/11/10 03:47:57;;;;;;;12.77;4.45;;;11.80;99.90;;;;;;4791060;30;20101;-71
2022/11/10 03:50:22;;;;;;;27.70;5.75;;;11.70;99.90;;;;;;4791337;29;20043;-70
2022/11/10 03:52:48;;;;;;;22.20;5.10;;;11.70;99.90;;;;;;4790910;29;20408;-71
2022/11/10 03:55:16;;;;;;;17.58;4.32;;;11.70;99.90;;;;;;4791320;29;20040;-70
2022/11/10 03:57:42;;;;;;;12.82;4.10;;;11.70;99.90;;;;;;4791039;29;20043;-70
2022/11/10 04:00:10;;;;;;;29.30;6.20;;;11.60;99.90;;;;;;4790196;30;20046;-70
2022/11/10 04:02:37;;;;;;;22.13;6.00;;;11.70;99.90;;;;;;4790940;29;20438;-70
2022/11/10 04:10:38;;;;;;;17.25;5.47;;;11.60;99.90;;;;;;4791923;29;20134;-71
2022/11/10 04:15:48;;;;;;;21.10;5.78;;;11.50;99.90;;;;;;4794572;29;20058;-71
2022/11/10 04:18:20;;;;;;;23.23;5.05;;;11.50;99.90;;;;;;4793362;30;20126;-71
2022/11/10 04:20:53;;;;;;;24.85;6.75;;;11.60;99.90;;;;;;4794394;29;20442;-70
2022/11/10 04:23:25;;;;;;;32.67;6.75;;;11.60;99.90;;;;;;4794352;30;20045;-70
2022/11/10 04:28:41;;;;;;;16.48;5.30;;;11.50;99.90;;;;;;4794506;29;20335;-71
2022/11/10 04:31:07;;;;;;;15.32;5.70;;;11.60;99.90;;;;;;4794182;29;20047;-70
2022/11/10 04:33:35;;;;;;;20.65;6.10;;;11.50;99.90;;;;;;4794311;29;20047;-71
2022/11/10 04:36:00;;;;;;;19.92;6.40;;;11.50;99.90;;;;;;4794030;29;20035;-71
2022/11/10 04:38:26;;;;;;;19.98;6.60;;;11.50;99.90;;;;;;4793836;29;20448;-71
2022/11/10 04:40:52;;;;;;;28.05;6.82;;;11.50;99.90;;;;;;4794136;29;20112;-71
2022/11/10 04:43:17;;;;;;;23.70;6.63;;;11.40;99.90;;;;;;4794039;30;20039;-71
2022/11/10 04:45:43;;;;;;;23.13;6.47;;;11.50;99.90;;;;;;4792066;30;20370;-71
2022/11/10 04:48:09;;;;;;;20.00;6.45;;;11.50;99.90;;;;;;4791659;30;20108;-71
2022/11/10 04:50:34;;;;;;;20.38;5.97;;;11.50;99.90;;;;;;4793442;29;20039;-70
2022/11/10 04:53:00;;;;;;;24.92;7.05;;;11.50;99.90;;;;;;4793725;29;20403;-71
2022/11/10 04:55:26;;;;;;;39.17;9.13;;;11.50;99.90;;;;;;4793597;29;20047;-71
2022/11/10 04:57:51;;;;;;;32.17;8.27;;;11.60;99.90;;;;;;4793775;29;20046;-70
2022/11/10 05:00:17;;;;;;;20.38;6.55;;;11.60;99.90;;;;;;4792653;29;20078;-71
2022/11/10 05:02:43;;;;;;;32.33;8.52;;;11.60;99.90;;;;;;4793620;29;20052;-70
2022/11/10 05:05:09;;;;;;;32.53;7.80;;;11.60;99.90;;;;;;4793535;29;20099;-71
2022/11/10 05:07:36;;;;;;;23.80;6.80;;;11.70;99.90;;;;;;4793811;29;20130;-70
2022/11/10 05:10:02;;;;;;;27.70;8.30;;;11.70;99.90;;;;;;4793131;29;20336;-71
2022/11/10 05:12:28;;;;;;;24.20;7.43;;;11.70;99.90;;;;;;4793664;29;20047;-71
2022/11/10 05:14:54;;;;;;;25.35;7.70;;;11.80;99.90;;;;;;4793461;29;20327;-71
2022/11/10 05:17:21;;;;;;;23.85;7.55;;;11.80;99.90;;;;;;4792383;29;20062;-71
2022/11/10 05:19:47;;;;;;;27.48;7.57;;;11.80;99.90;;;;;;4793275;29;20039;-70
2022/11/10 05:22:13;;;;;;;21.05;5.97;;;11.80;99.90;;;;;;4792297;29;20058;-71
2022/11/10 05:24:38;;;;;;;36.45;7.45;;;11.80;99.90;;;;;;4793184;29;20039;-71
2022/11/10 05:27:04;;;;;;;29.58;7.13;;;11.80;99.90;;;;;;4793387;29;20514;-71
2022/11/10 05:29:30;;;;;;;24.75;6.22;;;11.80;99.90;;;;;;4792496;30;20438;-71
2022/11/10 05:31:56;;;;;;;26.85;7.65;;;11.80;99.90;;;;;;4793021;29;20090;-70
2022/11/10 05:34:22;;;;;;;28.27;6.75;;;11.80;99.90;;;;;;4792192;30;20047;-71
2022/11/10 05:36:47;;;;;;;28.88;6.35;;;11.90;99.90;;;;;;4793020;29;20047;-70
2022/11/10 05:39:13;;;;;;;24.45;5.85;;;11.90;99.90;;;;;;4792605;30;20047;-71
2022/11/10 05:41:39;;;;;;;25.10;6.60;;;11.90;99.90;;;;;;4793071;29;20039;-70
2022/11/10 05:44:05;;;;;;;27.40;7.18;;;12.00;99.90;;;;;;4792150;30;20126;-71
2022/11/10 05:46:30;;;;;;;26.90;5.55;;;11.90;99.90;;;;;;4791998;30;20047;-70
2022/11/10 05:48:56;;;;;;;25.05;5.43;;;11.80;99.90;;;;;;4791721;29;20192;-70
2022/11/10 05:51:22;;;;;;;20.27;6.07;;;11.80;99.90;;;;;;4792990;29;20043;-70
2022/11/10 05:53:48;;;;;;;24.73;5.60;;;11.70;99.90;;;;;;4792791;29;20346;-71
2022/11/10 05:56:13;;;;;;;34.65;7.43;;;11.80;99.90;;;;;;4793007;29;20326;-71
2022/11/10 05:58:39;;;;;;;21.00;5.55;;;11.80;99.90;;;;;;4792574;29;20058;-71
2022/11/10 06:01:05;;;;;;;30.38;6.85;;;11.70;99.90;;;;;;4792883;29;20043;-71
2022/11/10 06:03:30;;;;;;;28.98;6.18;;;11.80;99.90;;;;;;4792509;29;20426;-71
2022/11/10 06:05:56;;;;;;;28.08;5.63;;;11.90;99.90;;;;;;4792521;29;20043;-71
2022/11/10 06:08:22;;;;;;;32.55;6.25;;;11.80;99.90;;;;;;4792278;29;20039;-71
2022/11/10 06:10:48;;;;;;;31.38;6.57;;;11.80;99.90;;;;;;4776508;30;20102;-71
2022/11/10 06:13:16;;;;;;;31.73;5.90;;;11.80;99.90;;;;;;4792323;29;20205;-72
2022/11/10 06:15:42;;;;;;;28.80;5.32;;;11.80;99.90;;;;;;4791531;30;20078;-71
2022/11/10 06:18:08;;;;;;;30.95;5.85;;;11.90;99.90;;;;;;4792398;29;20517;-71
2022/11/10 06:20:33;;;;;;;31.17;6.53;;;11.80;99.90;;;;;;4791171;30;20055;-71
2022/11/10 06:23:02;;;;;;;32.17;5.55;;;11.80;99.90;;;;;;4792399;29;20053;-70
2022/11/10 06:25:29;;;;;;;30.92;5.80;;;11.90;99.90;;;;;;4792177;29;20047;-71
2022/11/10 06:27:56;;;;;;;23.52;4.88;;;11.90;99.90;;;;;;4792212;29;20054;-71
2022/11/10 06:30:22;;;;;;;36.67;5.78;;;11.90;99.90;;;;;;4792369;29;20346;-71
2022/11/10 06:32:47;;;;;;;44.35;6.50;;;12.00;99.90;;;;;;4791398;29;20319;-70
2022/11/10 06:35:13;;;;;;;25.90;5.75;;;12.00;99.90;;;;;;4792315;29;20177;-71
2022/11/10 06:37:39;;;;;;;30.90;5.78;;;11.90;99.90;;;;;;4790971;30;20046;-71
2022/11/10 06:40:07;;;;;;;25.30;5.70;;;11.80;99.90;;;;;;4791823;29;20422;-70
2022/11/10 06:42:33;;;;;;;29.45;6.10;;;11.90;99.90;;;;;;4790970;30;20481;-70
2022/11/10 06:44:59;;;;;;;38.22;6.22;;;11.80;99.90;;;;;;4791827;29;20430;-71
2022/11/10 06:47:26;;;;;;;29.00;5.93;;;11.70;99.90;;;;;;4792107;29;20054;-70
2022/11/10 06:49:52;;;;;;;33.75;6.63;;;11.80;99.90;;;;;;4791944;29;20048;-70
2022/11/10 06:52:18;;;;;;;27.65;6.45;;;11.90;99.90;;;;;;4791595;29;20059;-71
2022/11/10 06:54:43;;;;;;;26.15;5.82;;;11.80;99.90;;;;;;4790759;30;20043;-71
2022/11/10 06:57:09;;;;;;;27.02;6.72;;;11.90;99.90;;;;;;4791716;29;20060;-71
2022/11/10 06:59:35;;;;;;;28.10;6.00;;;11.90;99.90;;;;;;4790829;30;20054;-70
2022/11/10 07:02:01;;;;;;;30.85;6.90;;;11.90;99.90;;;;;;4791917;29;20043;-70
2022/11/10 07:04:26;;;;;;;26.77;6.95;;;11.90;99.90;;;;;;4790655;30;20349;-70
2022/11/10 07:06:52;;;;;;;28.35;6.82;;;11.80;99.90;;;;;;4790578;30;20050;-70
2022/11/10 07:09:18;;;;;;;33.58;7.00;;;11.90;99.90;;;;;;4791433;29;20051;-70
2022/11/10 07:11:43;;;;;;;24.63;6.75;;;12.00;99.90;;;;;;4790578;30;20050;-70
2022/11/10 07:14:09;;;;;;;29.67;7.65;;;11.90;99.90;;;;;;4791457;29;20472;-71
2022/11/10 07:16:35;;;;;;;33.65;8.25;;;11.90;99.90;;;;;;4791450;30;20043;-70
2022/11/10 07:19:01;;;;;;;42.92;7.97;;;11.90;99.90;;;;;;4791453;29;20043;-70
2022/11/10 07:21:26;;;;;;;40.08;8.45;;;12.00;99.90;;;;;;4790495;30;20433;-70
2022/11/10 07:23:52;;;;;;;31.27;7.13;;;12.10;99.90;;;;;;4790444;30;20046;-70
2022/11/10 07:26:18;;;;;;;38.65;8.13;;;11.90;99.90;;;;;;4791314;29;20051;-71
2022/11/10 07:28:43;;;;;;;29.08;7.07;;;11.80;99.90;;;;;;4790456;30;20124;-70
2022/11/10 07:31:09;;;;;;;31.83;7.65;;;11.80;99.90;;;;;;4791480;29;20050;-70
2022/11/10 07:33:35;;;;;;;27.98;6.47;;;11.80;99.90;;;;;;4775405;30;20075;-70
2022/11/10 07:36:02;;;;;;;34.10;7.28;;;11.80;99.90;;;;;;4790442;30;20051;-71
2022/11/10 07:38:28;;;;;;;28.88;6.45;;;11.80;99.90;;;;;;4790899;29;20122;-71
2022/11/10 07:40:54;;;;;;;32.97;7.68;;;11.70;99.90;;;;;;4791445;29;20110;-72
2022/11/10 07:43:21;;;;;;;35.95;7.88;;;11.60;99.90;;;;;;4790426;30;20087;-71
2022/11/10 07:45:51;;;;;;;25.52;5.80;;;11.60;99.90;;;;;;4794882;29;20047;-70
2022/11/10 07:48:17;;;;;;;27.58;5.68;;;11.70;99.90;;;;;;4791874;29;20093;-72
2022/11/10 07:50:44;;;;;;;35.60;6.38;;;11.70;99.90;;;;;;4795176;30;20048;-70
2022/11/10 07:53:15;;;;;;;26.75;6.40;;;11.70;99.90;;;;;;4794809;29;20083;-71
2022/11/10 07:55:43;;;;;;;26.92;6.22;;;11.70;99.90;;;;;;4793753;29;20039;-69
2022/11/10 07:58:10;;;;;;;23.10;5.47;;;11.70;99.90;;;;;;4785092;30;20114;-69
2022/11/10 08:00:37;;;;;;;25.80;6.68;;;11.80;99.90;;;;;;4786215;29;20407;-71
2022/11/10 08:03:03;;;;;;;38.45;6.88;;;11.70;99.90;;;;;;4785876;30;20063;-70
2022/11/10 08:05:29;;;;;;;25.02;6.07;;;11.80;99.90;;;;;;4782334;30;20356;-71
2022/11/10 08:07:55;;;;;;;30.02;6.97;;;11.60;99.90;;;;;;4786396;30;20118;-70
2022/11/10 08:10:20;;;;;;;29.55;7.32;;;11.60;99.90;;;;;;4785745;30;20051;-68
2022/11/10 08:12:56;;;;;;;33.17;6.32;;;11.50;99.90;;;;;;4786408;30;20055;-70
2022/11/10 08:15:23;;;;;;;32.90;7.20;;;11.50;99.90;;;;;;4789342;30;20427;-79
2022/11/10 08:17:49;;;;;;;34.85;7.32;;;11.60;99.90;;;;;;4791428;29;20169;-70
2022/11/10 08:20:15;;;;;;;41.67;7.78;;;11.60;99.90;;;;;;4793066;29;20086;-72
2022/11/10 08:22:41;;;;;;;28.52;7.55;;;11.70;99.90;;;;;;4794379;30;20054;-70
2022/11/10 08:25:07;;;;;;;27.60;7.00;;;11.80;99.90;;;;;;4794291;29;20047;-70
2022/11/10 08:27:33;;;;;;;27.92;7.38;;;11.80;99.90;;;;;;4794409;29;20135;-69
2022/11/10 08:29:58;;;;;;;27.52;7.20;;;11.90;99.90;;;;;;4788084;29;20188;-71
2022/11/10 08:32:24;;;;;;;39.28;8.23;;;12.10;99.90;;;;;;4788574;30;20039;-68
2022/11/10 08:34:50;;;;;;;27.83;7.70;;;12.10;99.90;;;;;;4790834;30;20070;-70
2022/11/10 08:37:18;;;;;;;31.98;7.82;;;12.00;99.90;;;;;;4790274;29;20501;-72
2022/11/10 08:39:44;;;;;;;24.10;7.50;;;12.10;99.90;;;;;;4790372;30;20307;-69
2022/11/10 08:42:09;;;;;;;32.20;7.82;;;12.30;99.90;;;;;;4791465;30;20082;-69
2022/11/10 08:44:35;;;;;;;37.65;8.35;;;12.40;99.90;;;;;;4792723;30;20131;-73
2022/11/10 08:47:01;;;;;;;36.95;8.27;;;12.50;99.90;;;;;;4793968;29;20200;-69
2022/11/10 08:49:26;;;;;;;29.45;8.32;;;12.40;99.90;;;;;;4793935;29;20058;-69
2022/11/10 08:51:52;;;;;;;27.05;8.77;;;12.40;99.90;;;;;;4794067;29;20480;-69
2022/11/10 08:54:18;;;;;;;27.52;7.28;;;12.50;99.90;;;;;;4793825;30;20051;-69
2022/11/10 08:56:43;;;;;;;36.28;8.30;;;12.60;99.90;;;;;;4793366;29;20086;-69
2022/11/10 08:59:09;;;;;;;29.27;7.22;;;12.60;99.90;;;;;;4792699;30;20146;-69
2022/11/10 09:01:35;;;;;;;36.75;8.27;;;12.50;99.90;;;;;;4792571;30;20106;-69
2022/11/10 09:04:01;;;;;;;33.47;7.65;;;12.50;99.90;;;;;;4792713;30;20120;-68
2022/11/10 09:06:27;;;;;;;30.77;8.05;;;12.50;99.90;;;;;;4793696;30;20116;-69
2022/11/10 09:08:52;;;;;;;31.98;8.30;;;12.60;99.90;;;;;;4793415;29;20047;-69
2022/11/10 09:11:18;;;;;;;33.08;7.90;;;12.60;99.90;;;;;;4793610;29;20051;-68
2022/11/10 09:13:44;;;;;;;31.60;7.75;;;12.80;99.90;;;;;;4793422;30;20063;-68
2022/11/10 09:16:09;;;;;;;33.10;7.35;;;12.80;99.90;;;;;;4793588;29;20047;-68
2022/11/10 09:18:35;;;;;;;23.80;6.63;;;12.90;99.90;;;;;;4793281;29;20079;-68
2022/11/10 09:21:03;;;;;;;36.25;7.78;;;12.90;99.90;;;;;;4792355;29;20055;-68
2022/11/10 09:23:28;;;;;;;30.02;7.80;;;12.90;99.90;;;;;;4793429;29;20049;-69
2022/11/10 09:25:55;;;;;;;27.25;6.18;;;13.10;99.90;;;;;;4792324;30;20118;-68
2022/11/10 09:28:22;;;;;;;33.78;6.63;;;13.20;99.90;;;;;;4793251;30;20410;-68
2022/11/10 09:30:49;;;;;;;28.23;6.22;;;13.20;99.90;;;;;;4792974;29;20070;-68
2022/11/10 09:33:16;;;;;;;32.95;6.90;;;13.30;99.90;;;;;;4793119;29;20469;-68
2022/11/10 09:35:42;;;;;;;29.38;6.90;;;13.40;99.90;;;;;;4792149;30;20043;-68
2022/11/10 09:38:10;;;;;;;29.42;6.72;;;13.50;99.90;;;;;;4793219;29;20043;-68
2022/11/10 09:40:47;;;;;;;30.42;6.45;;;13.60;99.90;;;;;;4792711;29;20093;-68
2022/11/10 09:43:28;;;;;;;33.28;7.97;;;13.50;99.90;;;;;;4792762;29;20056;-69
2022/11/10 09:45:59;;;;;;;28.13;7.28;;;13.50;99.90;;;;;;4792027;30;20058;-68
2022/11/10 09:48:31;;;;;;;24.77;7.25;;;13.50;99.90;;;;;;4792857;29;20043;-68
2022/11/10 09:51:07;;;;;;;27.63;7.90;;;13.50;99.90;;;;;;4792166;30;20315;-68
2022/11/10 09:53:43;;;;;;;32.17;7.88;;;13.50;99.90;;;;;;4791743;30;20058;-69
2022/11/10 09:56:16;;;;;;;26.67;8.18;;;13.40;99.90;;;;;;4792886;29;20108;-68
2022/11/10 09:58:44;;;;;;;32.17;8.88;;;13.40;99.90;;;;;;4792023;30;20053;-68
2022/11/10 10:01:33;;;;;;;29.60;9.80;;;13.20;99.90;;;;;;4792593;30;20054;-68
2022/11/10 10:04:27;;;;;;;27.20;8.43;;;13.30;99.90;;;;;;4787526;30;20055;-69
2022/11/10 10:07:08;;;;;;;30.33;9.27;;;13.30;99.90;;;;;;4787762;29;20431;-68
2022/11/10 10:09:42;;;;;;;33.00;9.02;;;13.40;99.90;;;;;;4775857;30;20051;-68
2022/11/10 10:12:41;;;;;;;32.80;8.43;;;13.60;99.90;;;;;;4792481;30;20055;-68
2022/11/10 10:15:34;;;;;;;22.33;7.07;;;13.60;99.90;;;;;;4792089;29;20063;-69
2022/11/10 10:18:15;;;;;;;28.35;6.85;;;13.60;99.90;;;;;;4792380;30;20051;-69
2022/11/10 10:21:18;;;;;;;33.15;7.85;;;13.60;99.90;;;;;;4792509;30;20043;-69
2022/11/10 10:23:52;;;;;;;33.90;7.28;;;13.60;99.90;;;;;;4792462;29;20059;-67
2022/11/10 10:26:22;;;;;;;29.05;6.57;;;13.70;99.90;;;;;;4792172;29;20055;-68
2022/11/10 10:28:50;;;;;;;32.63;6.38;;;13.80;99.90;;;;;;4792367;29;20043;-68
2022/11/10 10:31:24;;;;;;;27.05;6.45;;;13.90;99.90;;;;;;4792097;29;20119;-68
2022/11/10 10:33:51;;;;;;;27.45;6.50;;;14.00;99.90;;;;;;4791112;29;20097;-70
2022/11/10 10:36:22;;;;;;;23.25;6.50;;;13.80;99.90;;;;;;4792067;29;20640;-67
2022/11/10 10:38:51;;;;;;;31.02;6.38;;;13.80;99.90;;;;;;4791829;29;20104;-69
2022/11/10 10:41:24;;;;;;;26.02;6.57;;;13.70;99.90;;;;;;4791946;30;20070;-71
2022/11/10 10:43:53;;;;;;;30.38;6.68;;;13.60;99.90;;;;;;4791005;30;20093;-70
2022/11/10 10:46:23;;;;;;;26.45;7.40;;;13.80;99.90;;;;;;4792152;30;20040;-69
2022/11/10 10:49:15;;;;;;;34.70;6.85;;;13.90;99.90;;;;;;4791947;29;20061;-68
2022/11/10 10:51:41;;;;;;;27.92;7.45;;;13.90;99.90;;;;;;4791659;30;20047;-69
2022/11/10 10:54:30;;;;;;;16.25;6.47;;;14.00;99.90;;;;;;4791721;29;20054;-73
2022/11/10 10:57:22;;;;;;;25.65;6.43;;;13.90;99.90;;;;;;4775765;30;20043;-70
2022/11/10 10:59:48;;;;;;;30.95;6.38;;;13.90;99.90;;;;;;4791797;29;20055;-70
2022/11/10 11:02:22;;;;;;;27.80;7.03;;;14.00;99.90;;;;;;4791681;29;20047;-69
2022/11/10 11:05:07;;;;;;;28.90;6.88;;;14.10;99.90;;;;;;4790686;30;20422;-70
2022/11/10 11:07:33;;;;;;;27.40;6.65;;;14.10;99.90;;;;;;4792007;30;20051;-70
2022/11/10 11:10:00;;;;;;;30.25;6.75;;;14.10;99.90;;;;;;4791084;29;20091;-70
2022/11/10 11:12:30;;;;;;;32.58;7.40;;;14.10;99.90;;;;;;4791573;29;20052;-70
2022/11/10 11:15:28;;;;;;;40.28;7.97;;;14.10;99.90;;;;;;4772839;30;20063;-69
2022/11/10 11:18:02;;;;;;;27.63;8.00;;;14.10;99.90;;;;;;4773359;30;20044;-69
2022/11/10 11:20:54;;;;;;;35.13;8.30;;;14.10;99.90;;;;;;4790120;29;20315;-69
2022/11/10 11:23:31;;;;;;;32.53;7.93;;;14.10;99.90;;;;;;4783355;29;20051;-70
2022/11/10 11:26:26;;;;;;;30.45;8.48;;;14.10;99.90;;;;;;4791279;30;20043;-70
2022/11/10 11:29:13;;;;;;;36.35;7.25;;;14.10;99.90;;;;;;4791082;29;20039;-76
2022/11/10 11:31:57;;;;;;;33.38;8.13;;;13.80;99.90;;;;;;4789711;29;20051;-71
2022/11/10 11:34:47;;;;;;;26.42;7.35;;;14.00;99.90;;;;;;4787404;30;20079;-71
2022/11/10 11:37:39;;;;;;;30.13;7.10;;;14.10;99.90;;;;;;4772961;30;20062;-71
2022/11/10 11:40:23;;;;;;;28.77;7.70;;;14.20;99.90;;;;;;4772486;30;20048;-71
2022/11/10 11:43:08;;;;;;;30.33;7.68;;;14.40;99.90;;;;;;4783558;30;20051;-70
2022/11/10 11:46:13;;;;;;;28.95;6.15;;;14.50;99.90;;;;;;4787896;30;20057;-70
2022/11/10 11:49:06;;;;;;;19.60;5.40;;;14.40;99.90;;;;;;4752901;30;20466;-73
2022/11/10 11:52:09;;;;;;;17.30;5.03;;;14.40;99.90;;;;;;4771104;30;20428;-70
2022/11/10 11:54:57;;;;;;;29.40;5.55;;;14.50;99.90;;;;;;4772731;30;20052;-70
2022/11/10 11:57:41;;;;;;;23.98;5.13;;;14.50;99.90;;;;;;4772383;30;20347;-69
2022/11/10 12:00:12;;;;;;;28.02;5.32;;;14.60;99.90;;;;;;4772199;30;20469;-70
2022/11/10 12:03:06;;;;;;;19.95;4.60;;;14.60;99.90;;;;;;4772446;30;20051;-70
2022/11/10 12:06:02;;;;;;;22.25;4.70;;;14.60;99.90;;;;;;4773345;30;20048;-69
2022/11/10 12:08:56;;;;;;;24.35;4.72;;;14.60;99.90;;;;;;4773546;30;20048;-69
2022/11/10 12:11:46;;;;;;;23.45;4.80;;;14.60;99.90;;;;;;4775957;30;20082;-68
2022/11/10 12:14:20;;;;;;;37.75;5.47;;;14.70;99.90;;;;;;4785123;30;20066;-75
2022/11/10 12:17:09;;;;;;;26.73;5.13;;;14.60;99.90;;;;;;4786622;30;20431;-69
2022/11/10 12:19:49;;;;;;;22.05;4.38;;;14.40;99.90;;;;;;4789623;29;20078;-73
2022/11/10 12:22:47;;;;;;;16.08;4.13;;;14.50;99.90;;;;;;4790931;29;20124;-69
2022/11/10 12:25:19;;;;;;;28.42;5.85;;;14.60;99.90;;;;;;4790687;29;20058;-73
2022/11/10 12:27:52;;;;;;;31.45;4.82;;;14.50;99.90;;;;;;4789579;30;20100;-72
2022/11/10 12:30:18;;;;;;;22.42;3.90;;;14.60;99.90;;;;;;4789489;29;20047;-69
2022/11/10 12:32:53;;;;;;;28.88;4.47;;;14.60;99.90;;;;;;4777083;29;20063;-70
2022/11/10 12:35:24;;;;;;;23.13;4.57;;;14.60;99.90;;;;;;4776043;30;20438;-73
2022/11/10 12:38:02;;;;;;;24.10;4.05;;;14.60;99.90;;;;;;4776003;30;20044;-71
2022/11/10 12:40:37;;;;;;;17.48;4.03;;;14.60;99.90;;;;;;4797932;29;20043;-71
2022/11/10 12:43:08;;;;;;;21.92;4.03;;;14.70;99.90;;;;;;4794025;29;20151;-70
2022/11/10 12:45:50;;;;;;;23.77;3.80;;;14.60;99.90;;;;;;4794009;29;20058;-71
2022/11/10 12:48:17;;;;;;;31.83;4.20;;;14.80;99.90;;;;;;4794123;29;20084;-70
2022/11/10 12:50:59;;;;;;;21.65;4.10;;;14.80;99.90;;;;;;4793859;29;20043;-70
2022/11/10 12:53:29;;;;;;;22.50;4.28;;;14.80;99.90;;;;;;4792877;30;20438;-70
2022/11/10 12:56:00;;;;;;;20.73;3.63;;;14.80;99.90;;;;;;4793757;29;20204;-71
2022/11/10 12:58:26;;;;;;;14.35;3.25;;;14.80;99.90;;;;;;4792371;29;20080;-71
2022/11/10 13:00:58;;;;;;;30.42;4.68;;;14.80;99.90;;;;;;4775701;30;20065;-72